sensor_id;sensor_type;location;lat;lon;timestamp;pressure;altitude;pressure_sealevel;temperature;humidity
15489;BME280;7846;48.830;9.116;2022-07-29T00:00:43;97656.06;;;24.86;59.63
15489;BME280;7846;48.830;9.116;2022-07-29T00:03:12;97659.56;;;24.86;59.47
15489;BME280;7846;48.830;9.116;2022-07-29T00:05:39;97648.97;;;24.80;59.55
15489;BME280;7846;48.830;9.116;2022-07-29T00:08:05;97648.66;;;24.76;59.53
15489;BME280;7846;48.830;9.116;2022-07-29T00:10:30;97638.16;;;24.75;59.94
15489;BME280;7846;48.830;9.116;2022-07-29T00:12:56;97636.63;;;24.57;61.26
15489;BME280;7846;48.830;9.116;2022-07-29T00:15:21;97635.63;;;24.63;59.84
15489;BME280;7846;48.830;9.116;2022-07-29T00:17:46;97632.00;;;24.52;60.62
15489;BME280;7846;48.830;9.116;2022-07-29T00:20:15;97633.75;;;24.42;61.22
15489;BME280;7846;48.830;9.116;2022-07-29T00:22:40;97637.06;;;24.49;60.90
15489;BME280;7846;48.830;9.116;2022-07-29T00:25:08;97647.06;;;24.53;60.57
15489;BME280;7846;48.830;9.116;2022-07-29T00:27:35;97643.06;;;24.56;60.85
15489;BME280;7846;48.830;9.116;2022-07-29T00:30:06;97626.25;;;24.44;60.45
15489;BME280;7846;48.830;9.116;2022-07-29T00:32:38;97635.19;;;24.49;60.48
15489;BME280;7846;48.830;9.116;2022-07-29T00:35:04;97634.88;;;24.46;61.28
15489;BME280;7846;48.830;9.116;2022-07-29T00:37:48;97635.88;;;24.39;60.68
15489;BME280;7846;48.830;9.116;2022-07-29T00:40:14;97628.38;;;24.42;60.64
15489;BME280;7846;48.830;9.116;2022-07-29T00:42:47;97626.00;;;24.45;60.29
15489;BME280;7846;48.830;9.116;2022-07-29T00:45:13;97628.03;;;24.38;60.98
15489;BME280;7846;48.830;9.116;2022-07-29T00:47:40;97627.72;;;24.34;61.02
15489;BME280;7846;48.830;9.116;2022-07-29T00:50:07;97620.31;;;24.25;61.97
15489;BME280;7846;48.830;9.116;2022-07-29T00:52:34;97622.03;;;24.31;62.50
15489;BME280;7846;48.830;9.116;2022-07-29T00:55:03;97624.06;;;24.41;61.57
15489;BME280;7846;48.830;9.116;2022-07-29T00:57:28;97621.53;;;24.34;61.10
15489;BME280;7846;48.830;9.116;2022-07-29T00:59:55;97609.81;;;24.23;61.65
15489;BME280;7846;48.830;9.116;2022-07-29T01:02:21;97602.88;;;24.27;62.46
15489;BME280;7846;48.830;9.116;2022-07-29T01:04:46;97605.75;;;24.21;62.20
15489;BME280;7846;48.830;9.116;2022-07-29T01:07:14;97600.94;;;24.23;61.90
15489;BME280;7846;48.830;9.116;2022-07-29T01:09:40;97604.19;;;24.25;61.91
15489;BME280;7846;48.830;9.116;2022-07-29T01:12:07;97600.31;;;24.15;63.01
15489;BME280;7846;48.830;9.116;2022-07-29T01:14:34;97596.06;;;24.20;62.85
15489;BME280;7846;48.830;9.116;2022-07-29T01:17:18;97594.50;;;24.24;63.01
15489;BME280;7846;48.830;9.116;2022-07-29T01:20:03;97596.94;;;24.25;62.80
15489;BME280;7846;48.830;9.116;2022-07-29T01:28:36;97599.31;;;24.22;61.91
15489;BME280;7846;48.830;9.116;2022-07-29T01:31:04;97596.00;;;24.14;62.37
15489;BME280;7846;48.830;9.116;2022-07-29T01:33:32;97599.41;;;24.10;62.73
15489;BME280;7846;48.830;9.116;2022-07-29T01:36:25;97597.19;;;24.24;61.82
15489;BME280;7846;48.830;9.116;2022-07-29T01:39:04;97606.56;;;24.21;61.93
15489;BME280;7846;48.830;9.116;2022-07-29T01:41:32;97604.50;;;24.28;62.05
15489;BME280;7846;48.830;9.116;2022-07-29T01:44:23;97605.06;;;24.30;61.88
15489;BME280;7846;48.830;9.116;2022-07-29T01:46:54;97593.00;;;24.33;61.42
15489;BME280;7846;48.830;9.116;2022-07-29T01:49:29;97590.81;;;24.30;61.39
15489;BME280;7846;48.830;9.116;2022-07-29T01:52:21;97594.31;;;24.08;62.44
15489;BME280;7846;48.830;9.116;2022-07-29T01:54:55;97595.75;;;24.38;61.53
15489;BME280;7846;48.830;9.116;2022-07-29T01:57:26;97587.94;;;24.36;61.49
15489;BME280;7846;48.830;9.116;2022-07-29T01:59:54;97590.31;;;24.33;61.36
15489;BME280;7846;48.830;9.116;2022-07-29T02:02:21;97603.25;;;24.14;62.07
15489;BME280;7846;48.830;9.116;2022-07-29T02:04:49;97591.50;;;24.20;61.89
15489;BME280;7846;48.830;9.116;2022-07-29T02:07:20;97589.31;;;24.39;61.15
15489;BME280;7846;48.830;9.116;2022-07-29T02:09:47;97579.84;;;24.36;61.18
15489;BME280;7846;48.830;9.116;2022-07-29T02:12:18;97584.56;;;24.46;60.86
15489;BME280;7846;48.830;9.116;2022-07-29T02:14:47;97587.44;;;24.39;61.08
15489;BME280;7846;48.830;9.116;2022-07-29T02:17:21;97581.56;;;24.43;60.72
15489;BME280;7846;48.830;9.116;2022-07-29T02:19:48;97574.97;;;24.33;61.19
15489;BME280;7846;48.830;9.116;2022-07-29T02:22:14;97580.25;;;24.45;60.80
15489;BME280;7846;48.830;9.116;2022-07-29T02:24:41;97579.78;;;24.53;60.26
15489;BME280;7846;48.830;9.116;2022-07-29T02:27:08;97572.03;;;24.57;60.09
15489;BME280;7846;48.830;9.116;2022-07-29T02:29:35;97571.53;;;24.60;60.10
15489;BME280;7846;48.830;9.116;2022-07-29T02:32:03;97573.22;;;24.66;60.01
15489;BME280;7846;48.830;9.116;2022-07-29T02:34:29;97580.66;;;24.37;60.82
15489;BME280;7846;48.830;9.116;2022-07-29T02:36:55;97582.63;;;24.42;60.58
15489;BME280;7846;48.830;9.116;2022-07-29T02:39:21;97586.38;;;24.41;60.67
15489;BME280;7846;48.830;9.116;2022-07-29T02:41:50;97581.09;;;24.51;60.44
15489;BME280;7846;48.830;9.116;2022-07-29T02:44:19;97585.97;;;24.54;60.02
15489;BME280;7846;48.830;9.116;2022-07-29T02:46:57;97578.47;;;24.56;59.90
15489;BME280;7846;48.830;9.116;2022-07-29T02:49:41;97587.50;;;24.45;60.66
15489;BME280;7846;48.830;9.116;2022-07-29T02:52:15;97592.25;;;24.37;60.50
15489;BME280;7846;48.830;9.116;2022-07-29T02:54:53;97588.00;;;24.42;60.57
15489;BME280;7846;48.830;9.116;2022-07-29T02:57:33;97589.88;;;24.19;61.29
15489;BME280;7846;48.830;9.116;2022-07-29T03:00:05;97582.97;;;24.50;60.34
15489;BME280;7846;48.830;9.116;2022-07-29T03:02:39;97592.16;;;24.54;60.22
15489;BME280;7846;48.830;9.116;2022-07-29T03:05:09;97593.56;;;24.57;60.24
15489;BME280;7846;48.830;9.116;2022-07-29T03:07:38;97590.25;;;24.50;60.13
15489;BME280;7846;48.830;9.116;2022-07-29T03:10:05;97593.34;;;24.63;59.82
15489;BME280;7846;48.830;9.116;2022-07-29T03:12:31;97599.25;;;24.60;60.23
15489;BME280;7846;48.830;9.116;2022-07-29T03:14:58;97593.09;;;24.65;59.96
15489;BME280;7846;48.830;9.116;2022-07-29T03:17:24;97588.03;;;24.69;59.79
15489;BME280;7846;48.830;9.116;2022-07-29T03:19:50;97601.16;;;24.65;59.90
15489;BME280;7846;48.830;9.116;2022-07-29T03:22:15;97594.75;;;24.66;60.04
15489;BME280;7846;48.830;9.116;2022-07-29T03:24:41;97590.41;;;24.65;59.54
15489;BME280;7846;48.830;9.116;2022-07-29T03:27:06;97593.41;;;24.69;60.05
15489;BME280;7846;48.830;9.116;2022-07-29T03:29:32;97594.16;;;24.64;60.28
15489;BME280;7846;48.830;9.116;2022-07-29T03:31:57;97591.50;;;24.42;60.72
15489;BME280;7846;48.830;9.116;2022-07-29T03:34:28;97590.44;;;24.43;60.84
15489;BME280;7846;48.830;9.116;2022-07-29T03:36:55;97593.38;;;24.42;60.66
15489;BME280;7846;48.830;9.116;2022-07-29T03:39:23;97588.28;;;24.40;61.24
15489;BME280;7846;48.830;9.116;2022-07-29T03:41:53;97600.19;;;24.05;62.54
15489;BME280;7846;48.830;9.116;2022-07-29T03:44:20;97600.13;;;24.00;62.83
15489;BME280;7846;48.830;9.116;2022-07-29T03:46:48;97600.97;;;24.06;62.44
15489;BME280;7846;48.830;9.116;2022-07-29T03:49:16;97598.56;;;24.04;62.22
15489;BME280;7846;48.830;9.116;2022-07-29T03:51:42;97610.81;;;24.17;61.73
15489;BME280;7846;48.830;9.116;2022-07-29T03:54:08;97605.75;;;24.21;61.54
15489;BME280;7846;48.830;9.116;2022-07-29T03:56:40;97604.00;;;24.31;61.45
15489;BME280;7846;48.830;9.116;2022-07-29T03:59:07;97593.19;;;24.26;61.54
15489;BME280;7846;48.830;9.116;2022-07-29T04:01:34;97600.13;;;24.22;61.21
15489;BME280;7846;48.830;9.116;2022-07-29T04:04:01;97603.63;;;24.23;61.52
15489;BME280;7846;48.830;9.116;2022-07-29T04:06:27;97592.28;;;24.21;61.56
15489;BME280;7846;48.830;9.116;2022-07-29T04:08:53;97601.44;;;24.20;61.62
15489;BME280;7846;48.830;9.116;2022-07-29T04:11:18;97600.31;;;24.15;61.53
15489;BME280;7846;48.830;9.116;2022-07-29T04:13:44;97600.50;;;24.09;61.53
15489;BME280;7846;48.830;9.116;2022-07-29T04:16:11;97600.31;;;24.15;61.60
15489;BME280;7846;48.830;9.116;2022-07-29T04:18:38;97597.81;;;24.09;61.71
15489;BME280;7846;48.830;9.116;2022-07-29T04:21:03;97601.78;;;24.06;61.65
15489;BME280;7846;48.830;9.116;2022-07-29T04:23:29;97604.00;;;24.09;62.11
15489;BME280;7846;48.830;9.116;2022-07-29T04:25:58;97610.44;;;24.08;61.45
15489;BME280;7846;48.830;9.116;2022-07-29T04:28:23;97607.50;;;24.10;61.54
15489;BME280;7846;48.830;9.116;2022-07-29T04:30:49;97605.38;;;24.12;61.73
15489;BME280;7846;48.830;9.116;2022-07-29T04:33:14;97602.63;;;24.07;61.60
15489;BME280;7846;48.830;9.116;2022-07-29T04:35:41;97611.25;;;24.09;61.35
15489;BME280;7846;48.830;9.116;2022-07-29T04:38:10;97607.31;;;24.17;61.71
15489;BME280;7846;48.830;9.116;2022-07-29T04:40:36;97612.19;;;24.20;61.56
15489;BME280;7846;48.830;9.116;2022-07-29T04:43:02;97608.84;;;24.29;61.21
15489;BME280;7846;48.830;9.116;2022-07-29T04:45:28;97606.50;;;24.38;60.93
15489;BME280;7846;48.830;9.116;2022-07-29T04:47:54;97604.50;;;24.50;61.13
15489;BME280;7846;48.830;9.116;2022-07-29T04:50:21;97611.41;;;24.63;60.45
15489;BME280;7846;48.830;9.116;2022-07-29T04:52:47;97604.78;;;24.76;60.18
15489;BME280;7846;48.830;9.116;2022-07-29T04:55:12;97604.78;;;24.76;60.64
15489;BME280;7846;48.830;9.116;2022-07-29T04:57:37;97602.81;;;24.93;59.78
15489;BME280;7846;48.830;9.116;2022-07-29T05:00:04;97600.00;;;25.10;58.96
15489;BME280;7846;48.830;9.116;2022-07-29T05:02:30;97600.06;;;25.15;58.97
15489;BME280;7846;48.830;9.116;2022-07-29T05:04:55;97611.69;;;25.21;58.86
15489;BME280;7846;48.830;9.116;2022-07-29T05:07:21;97602.69;;;25.37;58.08
15489;BME280;7846;48.830;9.116;2022-07-29T05:09:46;97617.81;;;25.43;57.66
15489;BME280;7846;48.830;9.116;2022-07-29T05:12:11;97607.19;;;25.64;57.23
15489;BME280;7846;48.830;9.116;2022-07-29T05:14:37;97615.63;;;25.77;56.40
15489;BME280;7846;48.830;9.116;2022-07-29T05:17:03;97612.59;;;25.69;56.15
15489;BME280;7846;48.830;9.116;2022-07-29T05:19:30;97609.25;;;25.89;56.10
15489;BME280;7846;48.830;9.116;2022-07-29T05:21:58;97612.56;;;26.06;55.94
15489;BME280;7846;48.830;9.116;2022-07-29T05:24:27;97610.00;;;26.31;55.41
15489;BME280;7846;48.830;9.116;2022-07-29T05:26:53;97617.66;;;26.50;54.92
15489;BME280;7846;48.830;9.116;2022-07-29T05:29:18;97614.44;;;26.58;54.45
15489;BME280;7846;48.830;9.116;2022-07-29T05:31:45;97610.97;;;26.68;54.35
15489;BME280;7846;48.830;9.116;2022-07-29T05:34:10;97607.63;;;26.45;54.74
15489;BME280;7846;48.830;9.116;2022-07-29T05:36:36;97615.31;;;26.84;53.80
15489;BME280;7846;48.830;9.116;2022-07-29T05:39:02;97619.94;;;26.89;54.00
15489;BME280;7846;48.830;9.116;2022-07-29T05:41:27;97618.00;;;26.74;54.22
15489;BME280;7846;48.830;9.116;2022-07-29T05:43:54;97620.19;;;26.92;53.38
15489;BME280;7846;48.830;9.116;2022-07-29T05:46:20;97625.94;;;27.32;52.83
15489;BME280;7846;48.830;9.116;2022-07-29T05:48:48;97622.41;;;27.36;52.92
15489;BME280;7846;48.830;9.116;2022-07-29T05:51:13;97623.78;;;27.59;51.58
15489;BME280;7846;48.830;9.116;2022-07-29T05:53:39;97631.53;;;26.89;52.80
15489;BME280;7846;48.830;9.116;2022-07-29T05:56:04;97633.72;;;27.08;53.05
15489;BME280;7846;48.830;9.116;2022-07-29T05:58:31;97630.63;;;26.58;53.99
15489;BME280;7846;48.830;9.116;2022-07-29T06:00:57;97630.13;;;26.71;53.92
15489;BME280;7846;48.830;9.116;2022-07-29T06:03:25;97633.16;;;26.85;53.71
15489;BME280;7846;48.830;9.116;2022-07-29T06:05:50;97635.53;;;26.76;53.65
15489;BME280;7846;48.830;9.116;2022-07-29T06:08:19;97636.03;;;26.53;54.21
15489;BME280;7846;48.830;9.116;2022-07-29T06:10:45;97639.72;;;27.15;53.12
15489;BME280;7846;48.830;9.116;2022-07-29T06:13:12;97637.22;;;26.98;53.04
15489;BME280;7846;48.830;9.116;2022-07-29T06:15:38;97648.09;;;27.29;52.44
15489;BME280;7846;48.830;9.116;2022-07-29T06:18:04;97646.75;;;27.92;51.27
15489;BME280;7846;48.830;9.116;2022-07-29T06:20:34;97655.78;;;28.53;50.07
15489;BME280;7846;48.830;9.116;2022-07-29T06:22:59;97654.78;;;28.93;48.90
15489;BME280;7846;48.830;9.116;2022-07-29T06:25:26;97653.41;;;29.01;49.17
15489;BME280;7846;48.830;9.116;2022-07-29T06:27:54;97655.50;;;29.48;47.89
15489;BME280;7846;48.830;9.116;2022-07-29T06:30:19;97661.81;;;29.73;47.62
15489;BME280;7846;48.830;9.116;2022-07-29T06:32:46;97653.84;;;29.52;47.32
15489;BME280;7846;48.830;9.116;2022-07-29T06:35:13;97663.56;;;29.87;47.48
15489;BME280;7846;48.830;9.116;2022-07-29T06:37:38;97667.97;;;29.83;46.31
15489;BME280;7846;48.830;9.116;2022-07-29T06:40:05;97666.47;;;29.96;46.64
15489;BME280;7846;48.830;9.116;2022-07-29T06:42:49;97656.91;;;30.04;46.91
15489;BME280;7846;48.830;9.116;2022-07-29T06:45:14;97667.91;;;29.20;47.29
15489;BME280;7846;48.830;9.116;2022-07-29T06:47:41;97662.94;;;28.03;50.00
15489;BME280;7846;48.830;9.116;2022-07-29T06:50:07;97662.72;;;27.84;50.26
15489;BME280;7846;48.830;9.116;2022-07-29T06:52:37;97664.75;;;28.43;49.52
15489;BME280;7846;48.830;9.116;2022-07-29T06:55:02;97664.59;;;28.74;48.41
15489;BME280;7846;48.830;9.116;2022-07-29T06:57:29;97664.56;;;28.84;48.34
15489;BME280;7846;48.830;9.116;2022-07-29T06:59:56;97661.34;;;28.77;48.39
15489;BME280;7846;48.830;9.116;2022-07-29T07:02:21;97678.50;;;29.16;47.21
15489;BME280;7846;48.830;9.116;2022-07-29T07:04:47;97670.81;;;28.79;48.06
15489;BME280;7846;48.830;9.116;2022-07-29T07:07:12;97670.31;;;29.22;47.60
15489;BME280;7846;48.830;9.116;2022-07-29T07:09:37;97673.13;;;29.06;48.15
15489;BME280;7846;48.830;9.116;2022-07-29T07:12:03;97672.09;;;28.37;49.19
15489;BME280;7846;48.830;9.116;2022-07-29T07:14:31;97671.13;;;28.78;48.48
15489;BME280;7846;48.830;9.116;2022-07-29T07:16:57;97678.84;;;28.45;48.17
15489;BME280;7846;48.830;9.116;2022-07-29T07:19:23;97676.59;;;28.62;48.49
15489;BME280;7846;48.830;9.116;2022-07-29T07:21:49;97672.97;;;27.97;49.74
15489;BME280;7846;48.830;9.116;2022-07-29T07:24:15;97686.72;;;29.46;47.78
15489;BME280;7846;48.830;9.116;2022-07-29T07:26:44;97687.38;;;28.73;47.76
15489;BME280;7846;48.830;9.116;2022-07-29T07:29:10;97678.13;;;29.33;47.02
15489;BME280;7846;48.830;9.116;2022-07-29T07:31:36;97681.75;;;29.18;47.06
15489;BME280;7846;48.830;9.116;2022-07-29T07:34:01;97690.81;;;28.93;47.71
15489;BME280;7846;48.830;9.116;2022-07-29T07:36:27;97687.69;;;29.21;47.45
15489;BME280;7846;48.830;9.116;2022-07-29T07:38:53;97683.41;;;30.17;45.56
15489;BME280;7846;48.830;9.116;2022-07-29T07:41:20;97683.13;;;30.43;45.50
15489;BME280;7846;48.830;9.116;2022-07-29T07:43:49;97697.16;;;30.26;45.50
15489;BME280;7846;48.830;9.116;2022-07-29T07:46:15;97693.25;;;29.79;45.88
15489;BME280;7846;48.830;9.116;2022-07-29T07:48:40;97681.84;;;30.35;45.25
15489;BME280;7846;48.830;9.116;2022-07-29T07:51:06;97690.00;;;30.35;44.84
15489;BME280;7846;48.830;9.116;2022-07-29T07:53:36;97697.16;;;30.26;45.50
15489;BME280;7846;48.830;9.116;2022-07-29T07:56:02;97702.78;;;30.34;44.68
15489;BME280;7846;48.830;9.116;2022-07-29T07:58:29;97688.53;;;29.60;46.20
15489;BME280;7846;48.830;9.116;2022-07-29T08:00:54;97688.09;;;31.21;43.96
15489;BME280;7846;48.830;9.116;2022-07-29T08:03:20;97700.16;;;31.53;43.06
15489;BME280;7846;48.830;9.116;2022-07-29T08:05:46;97695.59;;;31.81;41.83
15489;BME280;7846;48.830;9.116;2022-07-29T08:08:12;97695.84;;;30.47;43.24
15489;BME280;7846;48.830;9.116;2022-07-29T08:10:37;97694.63;;;30.82;43.17
15489;BME280;7846;48.830;9.116;2022-07-29T08:13:20;97696.47;;;30.87;43.17
15489;BME280;7846;48.830;9.116;2022-07-29T08:15:46;97703.16;;;31.14;42.79
15489;BME280;7846;48.830;9.116;2022-07-29T08:18:12;97692.19;;;31.00;41.96
15489;BME280;7846;48.830;9.116;2022-07-29T08:20:38;97701.00;;;30.49;43.34
15489;BME280;7846;48.830;9.116;2022-07-29T08:23:06;97693.13;;;31.33;41.02
15489;BME280;7846;48.830;9.116;2022-07-29T08:25:32;97692.59;;;31.50;41.01
15489;BME280;7846;48.830;9.116;2022-07-29T08:27:58;97692.72;;;30.83;42.31
15489;BME280;7846;48.830;9.116;2022-07-29T08:30:24;97686.63;;;31.10;41.50
15489;BME280;7846;48.830;9.116;2022-07-29T08:32:50;97682.72;;;30.01;42.62
15489;BME280;7846;48.830;9.116;2022-07-29T08:35:22;97691.91;;;29.76;43.02
15489;BME280;7846;48.830;9.116;2022-07-29T08:37:48;97687.75;;;30.42;41.53
15489;BME280;7846;48.830;9.116;2022-07-29T08:40:14;97685.38;;;30.59;42.04
15489;BME280;7846;48.830;9.116;2022-07-29T08:42:39;97685.47;;;31.16;40.16
15489;BME280;7846;48.830;9.116;2022-07-29T08:45:05;97695.31;;;31.50;40.66
15489;BME280;7846;48.830;9.116;2022-07-29T08:47:33;97694.25;;;29.54;44.56
15489;BME280;7846;48.830;9.116;2022-07-29T08:49:58;97694.31;;;29.83;44.14
15489;BME280;7846;48.830;9.116;2022-07-29T08:52:25;97680.94;;;30.45;43.80
15489;BME280;7846;48.830;9.116;2022-07-29T08:54:52;97681.28;;;30.38;43.13
15489;BME280;7846;48.830;9.116;2022-07-29T08:57:18;97676.41;;;30.35;43.39
15489;BME280;7846;48.830;9.116;2022-07-29T08:59:46;97684.25;;;31.03;42.02
15489;BME280;7846;48.830;9.116;2022-07-29T09:02:18;97691.00;;;31.49;41.49
15489;BME280;7846;48.830;9.116;2022-07-29T09:04:44;97693.47;;;31.26;40.60
15489;BME280;7846;48.830;9.116;2022-07-29T09:07:14;97700.78;;;31.83;39.91
15489;BME280;7846;48.830;9.116;2022-07-29T09:09:39;97695.69;;;31.43;40.54
15489;BME280;7846;48.830;9.116;2022-07-29T09:12:05;97697.34;;;31.58;40.34
15489;BME280;7846;48.830;9.116;2022-07-29T09:14:34;97688.34;;;31.76;40.58
15489;BME280;7846;48.830;9.116;2022-07-29T09:16:59;97692.72;;;32.79;39.11
15489;BME280;7846;48.830;9.116;2022-07-29T09:19:37;97695.91;;;32.26;39.33
15489;BME280;7846;48.830;9.116;2022-07-29T09:22:06;97694.94;;;33.05;38.86
15489;BME280;7846;48.830;9.116;2022-07-29T09:24:43;97696.38;;;32.61;39.27
15489;BME280;7846;48.830;9.116;2022-07-29T09:27:18;97693.16;;;31.98;40.66
15489;BME280;7846;48.830;9.116;2022-07-29T09:29:44;97698.25;;;30.25;42.93
15489;BME280;7846;48.830;9.116;2022-07-29T09:32:10;97692.66;;;31.77;41.00
15489;BME280;7846;48.830;9.116;2022-07-29T09:34:36;97685.78;;;32.45;40.07
15489;BME280;7846;48.830;9.116;2022-07-29T09:37:02;97688.50;;;31.66;40.40
15489;BME280;7846;48.830;9.116;2022-07-29T09:39:33;97679.81;;;30.94;41.59
15489;BME280;7846;48.830;9.116;2022-07-29T09:42:04;97674.31;;;31.69;40.69
15489;BME280;7846;48.830;9.116;2022-07-29T09:44:44;97689.56;;;31.84;40.36
15489;BME280;7846;48.830;9.116;2022-07-29T09:47:09;97683.00;;;30.77;42.19
15489;BME280;7846;48.830;9.116;2022-07-29T09:49:56;97668.34;;;31.86;41.06
15489;BME280;7846;48.830;9.116;2022-07-29T09:52:23;97670.69;;;32.20;39.48
15489;BME280;7846;48.830;9.116;2022-07-29T09:54:49;97673.31;;;31.98;39.77
15489;BME280;7846;48.830;9.116;2022-07-29T09:57:30;97680.75;;;31.22;40.85
15489;BME280;7846;48.830;9.116;2022-07-29T10:00:02;97679.31;;;31.62;40.76
15489;BME280;7846;48.830;9.116;2022-07-29T10:02:29;97671.28;;;31.90;39.85
15489;BME280;7846;48.830;9.116;2022-07-29T10:04:56;97659.88;;;31.36;40.93
15489;BME280;7846;48.830;9.116;2022-07-29T10:07:21;97661.88;;;31.12;40.82
15489;BME280;7846;48.830;9.116;2022-07-29T10:09:56;97670.50;;;31.51;40.03
15489;BME280;7846;48.830;9.116;2022-07-29T10:12:23;97671.78;;;31.40;40.56
15489;BME280;7846;48.830;9.116;2022-07-29T10:14:50;97667.31;;;30.93;40.85
15489;BME280;7846;48.830;9.116;2022-07-29T10:17:16;97670.88;;;30.45;41.52
15489;BME280;7846;48.830;9.116;2022-07-29T10:19:42;97672.72;;;30.26;41.53
15489;BME280;7846;48.830;9.116;2022-07-29T10:22:11;97672.28;;;30.13;41.56
15489;BME280;7846;48.830;9.116;2022-07-29T10:24:38;97665.66;;;31.29;40.22
15489;BME280;7846;48.830;9.116;2022-07-29T10:27:06;97671.31;;;29.99;41.54
15489;BME280;7846;48.830;9.116;2022-07-29T10:29:32;97665.53;;;30.59;41.01
15489;BME280;7846;48.830;9.116;2022-07-29T10:41:06;97662.66;;;29.34;42.23
15489;BME280;7846;48.830;9.116;2022-07-29T10:44:00;97659.28;;;29.47;42.68
15489;BME280;7846;48.830;9.116;2022-07-29T10:46:26;97656.25;;;29.88;42.08
15489;BME280;7846;48.830;9.116;2022-07-29T10:49:15;97653.50;;;29.59;42.69
15489;BME280;7846;48.830;9.116;2022-07-29T10:51:54;97658.13;;;28.75;44.67
15489;BME280;7846;48.830;9.116;2022-07-29T10:57:15;97668.13;;;29.92;42.90
15489;BME280;7846;48.830;9.116;2022-07-29T10:59:44;97658.88;;;29.69;43.98
15489;BME280;7846;48.830;9.116;2022-07-29T11:05:01;97670.47;;;28.96;45.67
15489;BME280;7846;48.830;9.116;2022-07-29T11:07:27;97667.81;;;28.86;48.74
15489;BME280;7846;48.830;9.116;2022-07-29T11:15:08;97677.97;;;28.60;49.94
15489;BME280;7846;48.830;9.116;2022-07-29T11:22:56;97679.13;;;29.42;45.54
15489;BME280;7846;48.830;9.116;2022-07-29T11:25:23;97680.16;;;29.86;45.37
15489;BME280;7846;48.830;9.116;2022-07-29T11:27:49;97687.75;;;30.13;46.11
15489;BME280;7846;48.830;9.116;2022-07-29T11:30:14;97697.22;;;30.21;45.82
15489;BME280;7846;48.830;9.116;2022-07-29T11:32:42;97695.75;;;31.00;44.27
15489;BME280;7846;48.830;9.116;2022-07-29T11:35:22;97692.63;;;31.31;43.51
15489;BME280;7846;48.830;9.116;2022-07-29T11:38:25;97700.38;;;31.56;43.14
15489;BME280;7846;48.830;9.116;2022-07-29T11:43:53;97696.47;;;32.42;41.60
15489;BME280;7846;48.830;9.116;2022-07-29T11:46:49;97689.06;;;32.84;40.54
15489;BME280;7846;48.830;9.116;2022-07-29T11:49:26;97692.63;;;33.34;41.33
15489;BME280;7846;48.830;9.116;2022-07-29T11:51:53;97691.56;;;33.44;40.49
15489;BME280;7846;48.830;9.116;2022-07-29T11:54:34;97695.44;;;33.65;38.78
15489;BME280;7846;48.830;9.116;2022-07-29T11:57:06;97688.47;;;33.82;39.34
15489;BME280;7846;48.830;9.116;2022-07-29T11:59:40;97682.88;;;35.06;37.25
15489;BME280;7846;48.830;9.116;2022-07-29T12:02:07;97686.91;;;35.26;35.23
15489;BME280;7846;48.830;9.116;2022-07-29T12:04:33;97689.19;;;35.15;36.27
15489;BME280;7846;48.830;9.116;2022-07-29T12:06:59;97682.47;;;34.73;37.75
15489;BME280;7846;48.830;9.116;2022-07-29T12:09:24;97679.84;;;35.17;36.89
15489;BME280;7846;48.830;9.116;2022-07-29T12:11:56;97683.22;;;35.05;37.37
15489;BME280;7846;48.830;9.116;2022-07-29T12:14:29;97677.09;;;35.25;37.75
15489;BME280;7846;48.830;9.116;2022-07-29T12:16:56;97677.09;;;35.08;37.81
15489;BME280;7846;48.830;9.116;2022-07-29T12:19:22;97669.81;;;34.86;39.04
15489;BME280;7846;48.830;9.116;2022-07-29T12:21:52;97668.56;;;35.09;37.79
15489;BME280;7846;48.830;9.116;2022-07-29T12:24:18;97668.56;;;33.59;40.94
15489;BME280;7846;48.830;9.116;2022-07-29T12:26:57;97664.59;;;33.65;41.11
15489;BME280;7846;48.830;9.116;2022-07-29T12:29:22;97659.59;;;32.86;41.20
15489;BME280;7846;48.830;9.116;2022-07-29T12:31:52;97654.94;;;31.90;42.27
15489;BME280;7846;48.830;9.116;2022-07-29T12:34:24;97657.81;;;31.09;44.53
15489;BME280;7846;48.830;9.116;2022-07-29T12:36:51;97666.47;;;32.28;42.41
15489;BME280;7846;48.830;9.116;2022-07-29T12:39:17;97661.72;;;32.20;41.32
15489;BME280;7846;48.830;9.116;2022-07-29T12:41:43;97662.81;;;32.05;42.66
15489;BME280;7846;48.830;9.116;2022-07-29T12:44:09;97663.13;;;31.19;43.48
15489;BME280;7846;48.830;9.116;2022-07-29T12:46:35;97664.31;;;31.65;43.86
15489;BME280;7846;48.830;9.116;2022-07-29T12:49:02;97661.78;;;31.36;44.12
15489;BME280;7846;48.830;9.116;2022-07-29T12:51:36;97666.13;;;30.80;45.30
15489;BME280;7846;48.830;9.116;2022-07-29T12:54:09;97663.41;;;30.32;46.76
15489;BME280;7846;48.830;9.116;2022-07-29T12:56:37;97668.03;;;29.78;46.94
15489;BME280;7846;48.830;9.116;2022-07-29T12:59:21;97661.75;;;30.07;46.58
15489;BME280;7846;48.830;9.116;2022-07-29T13:01:48;97665.31;;;30.98;44.65
15489;BME280;7846;48.830;9.116;2022-07-29T13:04:28;97676.28;;;30.21;45.28
15489;BME280;7846;48.830;9.116;2022-07-29T13:07:01;97678.00;;;29.83;45.37
15489;BME280;7846;48.830;9.116;2022-07-29T13:09:40;97682.34;;;30.13;44.53
15489;BME280;7846;48.830;9.116;2022-07-29T13:12:13;97683.09;;;29.60;44.59
15489;BME280;7846;48.830;9.116;2022-07-29T13:14:39;97685.34;;;30.11;44.29
15489;BME280;7846;48.830;9.116;2022-07-29T13:19:42;97684.22;;;30.18;44.13
15489;BME280;7846;48.830;9.116;2022-07-29T13:22:09;97684.66;;;29.27;44.11
15489;BME280;7846;48.830;9.116;2022-07-29T13:24:54;97688.78;;;29.20;43.75
15489;BME280;7846;48.830;9.116;2022-07-29T13:27:22;97686.47;;;29.81;43.67
15489;BME280;7846;48.830;9.116;2022-07-29T13:29:49;97692.63;;;29.13;43.96
15489;BME280;7846;48.830;9.116;2022-07-29T13:32:21;97693.16;;;29.10;43.86
15489;BME280;7846;48.830;9.116;2022-07-29T13:34:46;97693.34;;;29.69;43.56
15489;BME280;7846;48.830;9.116;2022-07-29T13:37:13;97690.69;;;30.46;43.17
15489;BME280;7846;48.830;9.116;2022-07-29T13:39:39;97684.91;;;30.52;42.78
15489;BME280;7846;48.830;9.116;2022-07-29T13:42:06;97685.50;;;31.68;41.39
15489;BME280;7846;48.830;9.116;2022-07-29T13:44:31;97686.78;;;32.63;40.24
15489;BME280;7846;48.830;9.116;2022-07-29T13:46:57;97689.19;;;33.65;38.07
15489;BME280;7846;48.830;9.116;2022-07-29T13:49:24;97691.78;;;35.64;34.97
15489;BME280;7846;48.830;9.116;2022-07-29T13:51:49;97704.94;;;35.10;34.61
15489;BME280;7846;48.830;9.116;2022-07-29T13:54:15;97697.59;;;34.00;36.70